Time;durP1;ratioP1;P1;durP2;ratioP2;P2;SDS_P1;SDS_P2;PMS_P1;PMS_P2;Temp;Humidity;BMP_temperature;BMP_pressure;BME280_temperature;BME280_humidity;BME280_pressure;Samples;Min_cycle;Max_cycle;Signal;HPM_P1;HPM_P2
2022/10/02 00:00:16;;;;;;;5.90;2.80;;;;;;;21.96;50.21;99957.09;4151454;28;20264;-31
2022/10/02 00:02:22;;;;;;;3.20;2.60;;;;;;;20.90;51.41;100045.56;4161253;28;20808;-30
2022/10/02 00:04:32;;;;;;;5.43;2.67;;;;;;;22.12;50.06;99946.66;4158889;28;20265;-30
2022/10/02 00:06:58;;;;;;;5.20;2.60;;;;;;;23.07;47.82;99877.16;4154735;28;20251;-30
2022/10/02 00:09:02;;;;;;;4.60;2.40;;;;;;;22.90;48.14;99933.97;4152068;28;20255;-31
2022/10/02 00:11:16;;;;;;;8.80;2.50;;;;;;;19.95;53.34;100111.91;4154581;28;20793;-31
2022/10/02 00:13:25;;;;;;;4.43;2.87;;;;;;;22.60;49.27;99910.50;4167602;28;20264;-31
2022/10/02 00:15:30;;;;;;;4.70;2.77;;;;;;;22.54;48.89;99952.09;4160539;28;20261;-31
2022/10/02 00:17:36;;;;;;;12.00;3.40;;;;;;;22.09;49.24;100021.88;4161954;28;20755;-31
2022/10/02 00:19:38;;;;;;;7.13;2.80;;;;;;;22.15;49.78;99993.06;4163957;28;20264;-31
2022/10/02 00:21:42;;;;;;;5.87;2.53;;;;;;;22.60;49.00;99953.88;4157260;28;20605;-31
2022/10/02 00:23:47;;;;;;;5.60;2.70;;;;;;;22.62;48.99;99960.72;4158387;28;20239;-31
2022/10/02 00:26:04;;;;;;;5.27;2.73;;;;;;;20.75;52.04;100097.22;4155228;28;20319;-30
2022/10/02 00:28:06;;;;;;;5.30;2.50;;;;;;;21.55;51.68;99988.41;4162958;28;20732;-31
2022/10/02 00:30:13;;;;;;;6.00;2.50;;;;;;;21.78;50.44;100003.97;4152684;28;20317;-31
2022/10/02 00:32:20;;;;;;;6.33;2.90;;;;;;;22.19;49.94;99988.84;4160481;28;20244;-30
2022/10/02 00:34:29;;;;;;;10.27;3.00;;;;;;;21.02;52.36;100027.63;4160591;28;20343;-31
2022/10/02 00:36:37;;;;;;;6.07;3.10;;;;;;;22.88;48.71;99898.13;4158448;28;20713;-30
2022/10/02 00:38:56;;;;;;;9.07;2.80;;;;;;;22.50;49.56;99932.75;4160861;28;20313;-31
2022/10/02 00:40:58;;;;;;;6.27;3.27;;;;;;;22.51;48.97;99961.53;4159526;28;20307;-31
2022/10/02 00:43:14;;;;;;;5.77;3.27;;;;;;;22.68;48.91;99977.91;4150495;28;20270;-31
2022/10/02 00:45:18;;;;;;;4.23;2.80;;;;;;;22.48;49.26;99986.38;4162233;28;20235;-31
2022/10/02 00:47:49;;;;;;;6.00;3.10;;;;;;;23.50;47.04;99913.81;4166860;28;20263;-31
2022/10/02 00:50:06;;;;;;;6.57;2.90;;;;;;;22.45;48.98;100003.91;4142064;28;20319;-31
2022/10/02 00:52:35;;;;;;;6.90;3.17;;;;;;;23.29;47.33;99951.41;4159239;28;20285;-31
2022/10/02 00:55:14;;;;;;;4.93;3.00;;;;;;;21.14;50.61;100117.78;4160276;28;20247;-31
2022/10/02 00:57:16;;;;;;;8.73;3.50;;;;;;;21.83;50.68;100012.25;4160894;28;20259;-31
2022/10/02 00:59:51;;;;;;;6.50;3.07;;;;;;;22.09;49.49;100002.13;4155290;28;20267;-31
2022/10/02 01:01:59;;;;;;;8.50;3.13;;;;;;;21.68;50.22;100034.28;4165127;28;20227;-31
2022/10/02 01:04:08;;;;;;;12.37;3.60;;;;;;;21.70;50.40;100021.34;4157689;28;20235;-30
2022/10/02 01:06:10;;;;;;;10.03;3.13;;;;;;;21.63;50.17;100038.69;4146718;28;20278;-29
2022/10/02 01:08:13;;;;;;;9.37;3.47;;;;;;;22.55;49.24;99942.91;4160567;28;20266;-29
2022/10/02 01:10:15;;;;;;;7.30;3.17;;;;;;;22.85;48.50;99934.69;4158819;28;20320;-29
2022/10/02 01:12:17;;;;;;;6.13;3.07;;;;;;;23.07;47.76;99924.06;4159140;28;20279;-30
2022/10/02 01:14:18;;;;;;;8.97;3.03;;;;;;;22.11;48.84;100016.25;4160755;28;20731;-29
2022/10/02 01:16:20;;;;;;;6.23;3.23;;;;;;;22.80;48.43;99937.28;4161753;28;20607;-30
2022/10/02 01:18:22;;;;;;;6.10;3.13;;;;;;;22.66;48.70;99971.91;4154993;28;20224;-30
2022/10/02 01:20:40;;;;;;;8.57;3.33;;;;;;;23.04;48.27;99935.41;4158161;28;20285;-30
2022/10/02 01:22:42;;;;;;;8.60;2.97;;;;;;;23.01;48.00;99955.69;4156219;28;20241;-30
2022/10/02 01:24:58;;;;;;;7.33;3.10;;;;;;;22.55;49.17;99976.25;4158455;28;20629;-29
2022/10/02 01:27:00;;;;;;;10.40;3.20;;;;;;;23.02;48.33;99929.38;4160889;28;25621;-29
2022/10/02 01:29:01;;;;;;;10.87;3.40;;;;;;;22.02;49.99;100045.53;4159440;28;20251;-30
2022/10/02 01:31:13;;;;;;;8.37;3.70;;;;;;;22.21;49.46;100026.53;4154418;28;20343;-29
2022/10/02 01:33:15;;;;;;;7.33;3.23;;;;;;;22.08;49.15;100036.50;4157242;28;20908;-29
2022/10/02 01:35:19;;;;;;;7.10;3.17;;;;;;;22.58;48.96;99985.81;4154414;28;20332;-29
2022/10/02 01:37:29;;;;;;;6.23;3.20;;;;;;;22.70;48.49;99975.78;4162222;28;20340;-29
2022/10/02 01:39:31;;;;;;;7.33;3.47;;;;;;;23.10;47.68;99952.63;4157997;28;20323;-30
2022/10/02 01:41:40;;;;;;;6.43;2.87;;;;;;;22.54;48.90;100027.94;4156067;28;20673;-30
2022/10/02 01:43:48;;;;;;;5.73;2.70;;;;;;;23.09;47.97;99978.09;4160942;28;20434;-30
2022/10/02 01:46:11;;;;;;;9.00;3.13;;;;;;;23.09;47.76;99959.91;4157496;28;20575;-29
2022/10/02 01:48:38;;;;;;;8.20;2.60;;;;;;;22.57;48.34;100012.06;4157606;28;20642;-29
2022/10/02 01:51:15;;;;;;;8.73;2.73;;;;;;;22.24;49.72;100028.78;4155321;28;20233;-29
2022/10/02 01:53:32;;;;;;;5.77;3.17;;;;;;;22.76;48.51;99977.56;4128628;28;20229;-30
2022/10/02 01:56:00;;;;;;;7.17;2.70;;;;;;;23.03;47.78;99955.47;4162111;28;20262;-30
2022/10/02 01:58:28;;;;;;;7.83;2.70;;;;;;;23.63;46.68;99927.16;4117782;28;20354;-30
2022/10/02 02:00:48;;;;;;;8.30;3.23;;;;;;;23.93;46.25;99913.31;4154256;28;20704;-30
2022/10/02 02:03:18;;;;;;;14.63;3.27;;;;;;;23.00;47.57;99999.31;4143182;28;20243;-30
2022/10/02 02:05:39;;;;;;;7.43;2.80;;;;;;;23.26;47.44;99961.91;4154175;28;20584;-29
2022/10/02 02:08:01;;;;;;;7.40;2.80;;;;;;;23.17;47.19;99994.00;4152887;28;20276;-29
2022/10/02 02:10:21;;;;;;;9.83;4.03;;;;;;;23.06;47.19;99989.41;4161575;28;20256;-29
2022/10/02 02:12:57;;;;;;;7.87;2.97;;;;;;;24.24;45.50;99888.63;4154282;28;20990;-29
2022/10/02 02:15:05;;;;;;;8.70;3.27;;;;;;;23.70;46.36;99956.88;4155233;28;20949;-30
2022/10/02 02:17:30;;;;;;;9.57;3.03;;;;;;;23.10;47.41;100023.13;4155106;28;20322;-30
2022/10/02 02:19:41;;;;;;;10.23;3.37;;;;;;;23.57;47.02;99980.53;4159386;28;20248;-29
2022/10/02 02:22:09;;;;;;;8.47;3.27;;;;;;;23.76;46.08;99980.34;4153386;28;20239;-29
2022/10/02 02:24:26;;;;;;;7.60;2.73;;;;;;;23.97;46.18;99959.00;4150100;28;20269;-28
2022/10/02 02:26:29;;;;;;;8.73;3.57;;;;;;;23.56;46.58;99970.72;4164167;28;20319;-28
2022/10/02 02:28:34;;;;;;;7.50;2.83;;;;;;;23.43;46.71;99984.53;4151182;28;20232;-29
2022/10/02 02:30:39;;;;;;;10.10;3.37;;;;;;;22.43;48.57;100054.78;4157479;28;20319;-30
2022/10/02 02:32:57;;;;;;;8.80;3.80;;;;;;;23.33;46.83;99987.84;4151950;28;20933;-30
2022/10/02 02:35:09;;;;;;;4.97;2.80;;;;;;;23.62;46.19;99951.81;4162371;28;20260;-28
2022/10/02 02:37:17;;;;;;;8.67;3.00;;;;;;;23.76;46.00;99959.44;4161260;28;20713;-29
2022/10/02 02:39:29;;;;;;;6.70;2.70;;;;;;;23.07;47.28;100023.59;4157037;28;20285;-28
2022/10/02 02:41:38;;;;;;;7.50;3.33;;;;;;;23.58;46.91;99962.34;4161195;28;20252;-31
2022/10/02 02:43:50;;;;;;;5.83;3.03;;;;;;;23.15;47.38;100024.06;4155713;28;20369;-29
2022/10/02 02:45:58;;;;;;;9.60;3.50;;;;;;;23.29;47.12;99986.66;4154081;28;20330;-29
2022/10/02 02:48:07;;;;;;;4.67;2.60;;;;;;;23.37;47.13;99993.63;4155940;28;20235;-28
2022/10/02 02:50:28;;;;;;;8.90;3.27;;;;;;;22.98;47.65;100015.81;4163438;28;20299;-30
2022/10/02 02:52:40;;;;;;;11.50;3.13;;;;;;;23.43;46.90;99978.28;4158047;28;20260;-28
2022/10/02 02:54:48;;;;;;;7.87;2.90;;;;;;;24.20;45.47;99904.59;4154732;28;20236;-28
2022/10/02 02:56:51;;;;;;;8.43;2.90;;;;;;;23.82;45.67;99973.94;4149946;28;20255;-28
2022/10/02 02:59:09;;;;;;;10.37;3.10;;;;;;;23.24;47.43;100026.44;4157970;28;20328;-30
2022/10/02 03:01:11;;;;;;;9.60;2.83;;;;;;;24.21;45.38;99932.56;4158532;28;20260;-30
2022/10/02 03:03:13;;;;;;;8.27;3.47;;;;;;;24.64;44.75;99902.03;4161495;28;20637;-30
2022/10/02 03:05:17;;;;;;;7.43;2.97;;;;;;;24.25;45.35;99963.63;4166040;28;20225;-30
2022/10/02 03:07:19;;;;;;;9.10;3.30;;;;;;;24.09;45.34;99976.06;4160189;28;20300;-28
2022/10/02 03:09:22;;;;;;;7.00;3.00;;;;;;;21.55;49.60;100086.63;4149928;28;20257;-28
2022/10/02 03:11:42;;;;;;;5.80;2.53;;;;;;;22.10;49.17;100047.06;4158542;28;20263;-28
2022/10/02 03:13:56;;;;;;;8.53;2.60;;;;;;;22.75;48.31;100019.28;4155324;28;20257;-29
2022/10/02 03:16:31;;;;;;;8.07;3.10;;;;;;;23.74;46.28;99945.28;4167645;28;20251;-29
2022/10/02 03:18:48;;;;;;;11.23;3.43;;;;;;;23.94;46.04;99939.44;4153665;28;20240;-29
2022/10/02 03:21:22;;;;;;;9.13;2.87;;;;;;;23.52;46.94;99996.66;4169591;28;20266;-29
2022/10/02 03:23:46;;;;;;;6.10;2.60;;;;;;;22.12;49.61;100044.16;4153550;28;20347;-29
2022/10/02 03:25:51;;;;;;;10.47;3.50;;;;;;;22.65;48.62;99992.75;4156973;28;20712;-29
2022/10/02 03:28:10;;;;;;;8.47;3.27;;;;;;;22.37;48.60;100022.38;4154996;28;20356;-29
2022/10/02 03:30:14;;;;;;;7.40;3.00;;;;;;;22.83;48.60;99989.13;4148255;28;20401;-29
2022/10/02 03:32:18;;;;;;;7.70;2.70;;;;;;;22.89;47.80;99989.25;4158244;28;20997;-28
2022/10/02 03:34:20;;;;;;;7.37;3.07;;;;;;;22.91;48.39;99987.13;4156206;28;20326;-29
2022/10/02 03:36:24;;;;;;;11.83;3.47;;;;;;;22.98;47.98;99988.69;4157170;28;20323;-29
2022/10/02 03:38:27;;;;;;;9.27;3.10;;;;;;;23.57;47.38;99928.13;4164186;28;20220;-29
2022/10/02 03:40:29;;;;;;;7.50;3.07;;;;;;;22.46;49.21;100040.78;4155957;28;20263;-29
2022/10/02 03:42:34;;;;;;;6.43;2.80;;;;;;;23.37;47.77;99961.06;4155496;28;20919;-29
2022/10/02 03:44:36;;;;;;;8.33;3.10;;;;;;;23.27;47.50;99971.72;4151896;28;20687;-29
2022/10/02 03:46:37;;;;;;;10.13;3.07;;;;;;;23.01;47.99;100015.34;4156564;28;20271;-29
2022/10/02 03:48:40;;;;;;;6.33;2.60;;;;;;;22.99;48.02;100022.06;4159029;28;20241;-29
2022/10/02 03:50:41;;;;;;;5.93;2.70;;;;;;;22.89;48.57;100013.66;4162080;28;20316;-29
2022/10/02 03:52:43;;;;;;;5.40;2.40;;;;;;;23.34;47.77;99956.94;4153829;28;20241;-29
2022/10/02 03:54:49;;;;;;;8.67;3.10;;;;;;;24.10;46.46;99904.38;4159014;28;20233;-29
2022/10/02 03:57:02;;;;;;;13.37;3.40;;;;;;;24.42;45.59;99896.53;4159920;28;20259;-29
2022/10/02 03:59:12;;;;;;;8.43;3.10;;;;;;;24.20;46.30;99933.66;4169469;28;20227;-29
2022/10/02 04:01:25;;;;;;;7.60;2.80;;;;;;;23.93;46.45;99936.94;4155503;28;20741;-29
2022/10/02 04:03:36;;;;;;;8.70;3.27;;;;;;;24.31;45.86;99922.72;4159963;28;20225;-29
2022/10/02 04:05:44;;;;;;;10.37;3.83;;;;;;;24.04;46.20;99946.09;4161426;28;20713;-29
2022/10/02 04:07:49;;;;;;;10.60;3.47;;;;;;;23.13;47.44;100031.63;4153802;28;20266;-29
2022/10/02 04:09:53;;;;;;;9.63;3.63;;;;;;;23.46;47.95;99965.06;4157079;28;20236;-29
2022/10/02 04:12:00;;;;;;;11.33;3.00;;;;;;;23.87;47.31;99941.47;4161547;28;20312;-30
2022/10/02 04:14:05;;;;;;;12.63;3.37;;;;;;;23.76;46.80;99948.59;4156497;28;20307;-29
2022/10/02 04:16:23;;;;;;;7.63;2.60;;;;;;;23.83;46.70;99953.06;4154031;28;20307;-29
2022/10/02 04:18:49;;;;;;;7.17;2.93;;;;;;;24.13;46.28;99934.59;4154189;28;20227;-29
2022/10/02 04:20:57;;;;;;;5.97;2.80;;;;;;;24.12;46.15;99932.94;4157329;28;20323;-29
2022/10/02 04:23:10;;;;;;;6.40;2.63;;;;;;;24.34;45.72;99940.41;4157873;28;20722;-29
2022/10/02 04:25:22;;;;;;;10.47;3.60;;;;;;;24.22;46.41;99973.09;4157919;28;20271;-38
2022/10/02 04:27:37;;;;;;;7.73;2.83;;;;;;;23.97;46.80;99981.56;4148390;28;20315;-30
2022/10/02 04:30:01;;;;;;;10.43;3.37;;;;;;;24.50;45.93;99936.06;4155153;28;20233;-29
2022/10/02 04:32:25;;;;;;;9.80;3.20;;;;;;;24.46;45.42;99940.34;4153052;28;20323;-29
2022/10/02 04:34:27;;;;;;;7.73;3.50;;;;;;;24.22;45.48;99951.34;4154583;28;20247;-29
2022/10/02 04:36:57;;;;;;;10.00;3.50;;;;;;;23.83;46.68;100002.75;4152309;28;20469;-29
2022/10/02 04:39:11;;;;;;;10.83;3.17;;;;;;;24.11;46.11;99982.09;4152429;28;20320;-30
2022/10/02 04:41:26;;;;;;;7.90;3.13;;;;;;;24.46;45.59;99941.19;4151114;28;20264;-30
2022/10/02 04:43:49;;;;;;;9.77;2.90;;;;;;;24.93;44.75;99907.34;4171862;28;20270;-30
2022/10/02 04:46:02;;;;;;;10.73;3.33;;;;;;;24.05;46.57;100005.63;4153457;28;20611;-30
2022/10/02 04:48:31;;;;;;;6.87;2.90;;;;;;;22.70;48.47;100048.97;4156900;28;20501;-30
2022/10/02 04:50:41;;;;;;;7.17;2.73;;;;;;;23.99;46.46;99943.28;4157281;28;20328;-30
2022/10/02 04:53:12;;;;;;;8.00;3.43;;;;;;;23.29;47.60;100011.09;4158172;28;20251;-30
2022/10/02 04:55:42;;;;;;;8.23;3.17;;;;;;;23.02;48.27;100019.69;4158954;28;20308;-29
2022/10/02 04:58:09;;;;;;;11.10;3.13;;;;;;;24.41;46.29;99894.06;4156162;28;20267;-29
2022/10/02 05:00:17;;;;;;;8.90;3.17;;;;;;;23.14;48.53;99995.28;4152247;28;20332;-29
2022/10/02 05:02:37;;;;;;;8.43;2.90;;;;;;;24.04;46.29;99913.50;4157049;28;20333;-30
2022/10/02 05:05:06;;;;;;;11.67;3.17;;;;;;;23.92;47.12;99929.88;4161339;28;20379;-29
2022/10/02 05:07:45;;;;;;;12.30;3.17;;;;;;;23.27;47.57;99986.09;4152016;28;20527;-30
2022/10/02 05:09:53;;;;;;;9.37;2.90;;;;;;;23.44;47.02;99975.31;4157257;28;20306;-30
2022/10/02 05:12:38;;;;;;;11.77;3.50;;;;;;;24.29;46.02;99907.72;4161145;28;20780;-30
2022/10/02 05:15:03;;;;;;;6.13;3.23;;;;;;;24.17;46.08;99920.56;4161982;28;20255;-30
2022/10/02 05:17:23;;;;;;;6.97;3.33;;;;;;;23.93;46.95;99948.63;4153839;28;20663;-30
2022/10/02 05:19:37;;;;;;;8.73;3.50;;;;;;;23.18;48.47;100007.31;4166299;28;20231;-30
2022/10/02 05:22:00;;;;;;;8.80;3.30;;;;;;;23.01;48.64;100000.94;4153369;28;20294;-30
2022/10/02 05:24:23;;;;;;;9.70;3.63;;;;;;;23.14;48.34;99991.75;4158674;28;20268;-29
2022/10/02 05:26:36;;;;;;;9.07;3.10;;;;;;;23.68;46.61;99975.28;4147144;28;20328;-30
2022/10/02 05:28:59;;;;;;;10.03;3.23;;;;;;;23.66;46.70;99978.25;4151965;28;20615;-30
2022/10/02 05:31:30;;;;;;;9.57;3.40;;;;;;;23.53;47.35;99965.72;4157022;28;20290;-30
2022/10/02 05:33:34;;;;;;;8.93;3.40;;;;;;;22.77;48.16;100035.31;4159358;28;20252;-29
2022/10/02 05:35:37;;;;;;;11.73;2.93;;;;;;;23.09;48.44;99976.19;4161969;28;20260;-30
2022/10/02 05:37:47;;;;;;;8.13;3.10;;;;;;;22.41;48.63;100029.81;4154895;28;20260;-30
2022/10/02 05:40:56;;;;;;;4.93;3.13;;;;;;;22.71;49.49;99976.63;4162144;28;20724;-29
2022/10/02 05:43:13;;;;;;;11.07;3.17;;;;;;;22.01;51.31;99964.53;4061899;29;20308;-30
2022/10/02 05:46:01;;;;;;;8.23;2.80;;;;;;;21.77;51.74;99945.47;4122418;28;20270;-30
2022/10/02 05:48:28;;;;;;;7.30;3.27;;;;;;;22.62;50.17;99873.16;4155317;28;20332;-29
2022/10/02 05:50:34;;;;;;;9.23;3.50;;;;;;;22.67;50.04;99897.66;4156451;28;20257;-30
2022/10/02 05:52:41;;;;;;;9.57;3.33;;;;;;;23.02;49.03;99907.69;4159299;28;20331;-30
2022/10/02 05:55:24;;;;;;;13.80;3.17;;;;;;;19.99;54.28;100039.44;4151415;28;20708;-29
2022/10/02 05:57:31;;;;;;;7.00;3.03;;;;;;;22.10;51.05;99909.81;4147080;28;20256;-30
2022/10/02 05:59:55;;;;;;;5.07;3.00;;;;;;;21.64;51.43;99948.34;4158428;28;20721;-30
2022/10/02 06:02:03;;;;;;;11.73;3.40;;;;;;;23.62;47.53;99832.41;4156099;28;20319;-29
2022/10/02 06:04:19;;;;;;;9.47;3.63;;;;;;;22.73;49.35;99933.88;4158254;28;20342;-29
2022/10/02 06:06:21;;;;;;;5.73;3.03;;;;;;;23.98;46.83;99841.19;4163302;28;20757;-30
2022/10/02 06:08:35;;;;;;;7.77;4.10;;;;;;;24.08;46.38;99869.31;4158456;28;20287;-30
2022/10/02 06:10:45;;;;;;;10.60;3.30;;;;;;;24.44;46.15;99853.59;4151127;28;20267;-30
2022/10/02 06:12:54;;;;;;;9.47;4.00;;;;;;;24.04;46.14;99929.81;4156529;28;20871;-30
2022/10/02 06:15:03;;;;;;;8.83;4.23;;;;;;;23.98;46.57;99919.94;4157895;28;20318;-29
2022/10/02 06:17:11;;;;;;;12.77;6.10;;;;;;;24.58;45.79;99881.28;4154052;28;20236;-30
2022/10/02 06:19:23;;;;;;;9.47;5.73;;;;;;;24.09;46.30;99947.03;4162674;28;20259;-30
2022/10/02 06:21:34;;;;;;;14.97;7.00;;;;;;;24.54;45.91;99901.06;4158822;28;20247;-30
2022/10/02 06:23:41;;;;;;;11.00;5.17;;;;;;;24.09;46.09;99948.91;4159925;28;20334;-30
2022/10/02 06:25:48;;;;;;;9.47;4.53;;;;;;;24.44;45.69;99918.03;4159039;28;20270;-30
2022/10/02 06:28:02;;;;;;;6.80;3.93;;;;;;;24.69;45.29;99887.69;4156708;28;20661;-30
2022/10/02 06:30:16;;;;;;;7.20;3.67;;;;;;;24.14;46.28;99932.69;4158974;28;20231;-29
2022/10/02 06:32:37;;;;;;;9.33;4.00;;;;;;;24.62;45.75;99901.47;4153225;28;20304;-30
2022/10/02 06:34:39;;;;;;;8.93;4.47;;;;;;;24.63;45.46;99932.16;4160659;28;20253;-30
2022/10/02 06:37:18;;;;;;;12.50;4.40;;;;;;;25.52;44.04;99851.50;4156066;28;20224;-29
2022/10/02 06:39:34;;;;;;;9.63;4.63;;;;;;;25.46;43.73;99868.84;4122178;28;20390;-30
2022/10/02 06:41:39;;;;;;;10.07;4.50;;;;;;;25.26;44.48;99896.66;4157864;28;20328;-30
2022/10/02 06:44:01;;;;;;;9.23;5.67;;;;;;;24.41;45.58;99986.44;4156374;28;20343;-30
2022/10/02 06:46:11;;;;;;;10.03;5.07;;;;;;;25.26;44.42;99902.09;4161377;28;20255;-30
2022/10/02 06:48:24;;;;;;;8.73;4.87;;;;;;;25.18;44.23;99912.31;4156951;28;20881;-30
2022/10/02 06:50:29;;;;;;;7.43;3.87;;;;;;;24.91;44.64;99955.75;4157083;28;20278;-30
2022/10/02 06:52:56;;;;;;;6.93;4.10;;;;;;;24.94;44.99;99941.66;4161697;28;20683;-29
2022/10/02 06:55:40;;;;;;;10.03;3.93;;;;;;;25.16;44.68;99919.91;4155023;28;20343;-30
2022/10/02 06:58:10;;;;;;;11.83;3.60;;;;;;;24.80;45.10;99921.31;4153995;28;20355;-29
2022/10/02 07:00:17;;;;;;;6.87;3.60;;;;;;;24.73;45.58;99942.38;4125507;28;20703;-29
2022/10/02 07:02:37;;;;;;;10.10;3.73;;;;;;;24.82;45.06;99938.22;4154223;28;20980;-30
2022/10/02 07:04:54;;;;;;;8.63;4.03;;;;;;;24.85;44.91;99927.66;4163971;28;20241;-29
2022/10/02 07:07:04;;;;;;;6.47;3.80;;;;;;;23.59;45.95;100004.72;4148967;28;20738;-30
2022/10/02 07:09:24;;;;;;;8.10;4.90;;;;;;;23.60;47.08;99995.47;4155113;28;20793;-30
2022/10/02 07:12:16;;;;;;;8.23;5.13;;;;;;;24.98;45.12;99877.50;4149938;28;20295;-30
2022/10/02 07:14:33;;;;;;;9.67;4.83;;;;;;;25.05;44.37;99875.44;4094105;28;20258;-30
2022/10/02 07:16:44;;;;;;;6.03;4.03;;;;;;;24.93;44.11;99904.63;4149333;28;20320;-29
2022/10/02 07:18:51;;;;;;;4.97;3.73;;;;;;;24.62;45.35;99947.66;4161256;28;20260;-29
2022/10/02 07:21:02;;;;;;;5.80;3.50;;;;;;;24.21;46.16;99970.59;4162440;28;20292;-30
2022/10/02 07:23:24;;;;;;;6.37;3.27;;;;;;;24.22;46.03;99948.63;4158013;28;20335;-30
2022/10/02 07:25:47;;;;;;;7.30;3.20;;;;;;;24.22;45.93;99928.81;4155841;28;20263;-30
2022/10/02 07:28:04;;;;;;;9.43;4.13;;;;;;;24.62;45.44;99879.72;4159655;28;20603;-30
2022/10/02 07:30:16;;;;;;;7.83;3.40;;;;;;;22.36;48.76;99982.81;4162796;28;20320;-30
2022/10/02 07:32:33;;;;;;;7.13;3.40;;;;;;;24.09;46.68;99881.00;4157166;28;20260;-29
2022/10/02 07:34:38;;;;;;;4.80;3.23;;;;;;;22.17;50.10;99944.94;4157453;28;20279;-31
2022/10/02 07:36:50;;;;;;;4.60;2.60;;;;;;;21.78;51.05;99938.19;4161009;28;20729;-29
2022/10/02 07:39:20;;;;;;;4.57;2.50;;;;;;;23.08;48.86;99848.97;4162190;28;20750;-29
2022/10/02 07:41:24;;;;;;;6.53;3.47;;;;;;;22.18;49.97;99929.50;4165589;28;20555;-30
2022/10/02 07:43:38;;;;;;;4.97;3.43;;;;;;;21.31;52.74;99901.72;4164495;28;20288;-29
2022/10/02 07:45:59;;;;;;;6.70;3.40;;;;;;;22.22;49.93;99895.47;4161277;28;20338;-28
2022/10/02 07:48:11;;;;;;;5.13;3.53;;;;;;;21.04;52.79;99924.66;4160190;28;20521;-29
2022/10/02 07:50:38;;;;;;;13.40;7.37;;;;;;;24.10;47.62;99776.72;4159149;28;20323;-29
2022/10/02 07:52:42;;;;;;;9.90;5.83;;;;;;;23.31;47.76;99900.44;4158944;28;20991;-28
2022/10/02 07:55:19;;;;;;;7.40;3.80;;;;;;;22.95;49.40;99860.91;4163805;28;20728;-30
2022/10/02 07:57:34;;;;;;;4.77;3.00;;;;;;;21.48;53.17;99882.97;4152548;28;20260;-28
2022/10/02 07:59:42;;;;;;;6.33;3.03;;;;;;;21.65;51.54;99912.97;4161667;28;20260;-28
2022/10/02 08:01:47;;;;;;;6.07;2.60;;;;;;;20.93;53.75;99920.81;4162551;28;20258;-29
2022/10/02 08:03:55;;;;;;;6.00;2.83;;;;;;;23.51;48.89;99787.94;4161544;28;20314;-29
2022/10/02 08:05:59;;;;;;;5.47;3.20;;;;;;;24.56;46.21;99785.56;4158254;28;20251;-30
2022/10/02 08:08:14;;;;;;;5.50;3.37;;;;;;;25.07;45.39;99787.31;4156695;28;20316;-29
2022/10/02 08:10:20;;;;;;;7.13;3.30;;;;;;;24.42;46.00;99877.50;4156481;28;20698;-30
2022/10/02 08:12:36;;;;;;;7.73;3.57;;;;;;;22.95;49.07;99953.09;4162698;28;20264;-29
2022/10/02 08:14:44;;;;;;;6.37;3.67;;;;;;;23.79;47.53;99894.88;4167958;28;20275;-30
2022/10/02 08:16:49;;;;;;;6.57;3.40;;;;;;;24.26;46.83;99883.75;4156029;28;20224;-31
2022/10/02 08:18:54;;;;;;;5.80;3.70;;;;;;;25.05;45.49;99837.38;4155022;28;20232;-31
2022/10/02 08:20:56;;;;;;;8.30;3.30;;;;;;;25.12;45.34;99841.78;4160612;28;20583;-30
2022/10/02 08:23:26;;;;;;;7.93;3.30;;;;;;;25.47;44.66;99851.44;4157023;28;20265;-29
2022/10/02 08:25:35;;;;;;;6.50;3.40;;;;;;;25.40;44.43;99865.25;4159932;28;20270;-29
2022/10/02 08:27:57;;;;;;;5.70;3.37;;;;;;;23.94;47.45;99988.31;4158085;28;20560;-29
2022/10/02 08:30:02;;;;;;;5.33;3.00;;;;;;;23.48;48.12;100011.75;4158942;28;20225;-29
2022/10/02 08:32:08;;;;;;;4.37;2.90;;;;;;;22.94;49.08;100002.94;4165836;28;20239;-29
2022/10/02 08:34:19;;;;;;;8.70;3.40;;;;;;;23.20;48.24;99991.63;4157870;28;20894;-29
2022/10/02 08:36:53;;;;;;;7.13;3.47;;;;;;;23.36;48.72;99943.94;4156053;28;20225;-29
2022/10/02 08:39:04;;;;;;;7.17;3.77;;;;;;;24.12;47.38;99885.94;4156522;28;20256;-29
2022/10/02 08:41:11;;;;;;;6.70;3.43;;;;;;;24.59;45.94;99888.34;4158804;28;20240;-28
2022/10/02 08:43:34;;;;;;;7.47;4.53;;;;;;;24.78;46.03;99866.34;4152350;28;20653;-30
2022/10/02 08:46:01;;;;;;;7.10;4.50;;;;;;;23.48;47.86;100009.03;4162211;28;20691;-29
2022/10/02 08:48:15;;;;;;;8.63;4.80;;;;;;;22.95;48.87;100020.88;4154449;28;20237;-29
2022/10/02 08:50:51;;;;;;;9.13;4.40;;;;;;;24.26;47.39;99890.03;4158879;28;20311;-29
2022/10/02 08:53:07;;;;;;;8.87;4.10;;;;;;;24.40;46.85;99895.16;4123169;28;20239;-31
2022/10/02 08:56:02;;;;;;;5.57;3.20;;;;;;;23.53;48.05;99946.72;4159797;28;20593;-29
2022/10/02 08:58:26;;;;;;;6.93;3.23;;;;;;;23.46;47.53;99970.47;4133337;28;20245;-29
2022/10/02 09:00:39;;;;;;;8.13;3.30;;;;;;;25.16;45.35;99846.44;4151887;28;20227;-31
2022/10/02 09:02:59;;;;;;;4.10;2.80;;;;;;;24.06;46.83;99968.44;4160249;28;20232;-29
2022/10/02 09:05:39;;;;;;;3.83;2.87;;;;;;;23.07;48.71;99989.16;4157042;28;20271;-29
2022/10/02 09:08:06;;;;;;;3.73;3.07;;;;;;;24.15;47.38;99882.75;4154526;28;20264;-29
2022/10/02 09:10:17;;;;;;;3.17;2.50;;;;;;;24.11;46.69;99920.44;4155907;28;20581;-30
2022/10/02 09:12:46;;;;;;;5.97;3.10;;;;;;;24.04;47.40;99937.94;4161517;28;21060;-30
2022/10/02 09:14:50;;;;;;;4.23;2.93;;;;;;;24.09;46.91;99928.03;4157537;28;20330;-30
2022/10/02 09:17:13;;;;;;;5.43;3.03;;;;;;;24.71;46.40;99876.56;4160750;28;20228;-29
2022/10/02 09:19:40;;;;;;;5.50;2.40;;;;;;;25.21;45.22;99849.22;4156858;28;20259;-29
2022/10/02 09:21:42;;;;;;;4.23;2.47;;;;;;;25.04;45.60;99878.41;4164215;28;20275;-31
2022/10/02 09:24:05;;;;;;;5.03;2.70;;;;;;;25.38;44.78;99870.16;4167469;28;20256;-31
2022/10/02 09:26:28;;;;;;;3.30;2.60;;;;;;;25.36;44.87;99881.28;4155603;28;20260;-30
2022/10/02 09:28:49;;;;;;;4.77;2.53;;;;;;;25.10;45.97;99910.03;4156835;28;20891;-31
2022/10/02 09:31:33;;;;;;;4.93;2.50;;;;;;;25.07;45.87;99904.28;4161307;28;20685;-30
2022/10/02 09:33:47;;;;;;;5.87;2.70;;;;;;;25.20;45.01;99893.03;4140246;28;20228;-30
2022/10/02 09:36:13;;;;;;;3.27;2.30;;;;;;;25.01;45.82;99906.94;4168065;28;20669;-30
2022/10/02 09:38:41;;;;;;;3.13;2.37;;;;;;;25.64;44.74;99871.22;4166289;28;20256;-30
2022/10/02 09:41:01;;;;;;;3.67;2.90;;;;;;;25.67;44.66;99881.59;4153761;28;20232;-30
2022/10/02 09:43:09;;;;;;;4.70;2.50;;;;;;;25.33;45.35;99913.59;4156184;28;20330;-30
2022/10/02 09:45:35;;;;;;;4.93;3.30;;;;;;;24.73;45.94;99964.13;4164299;28;20758;-30
2022/10/02 09:48:11;;;;;;;5.67;3.63;;;;;;;23.63;47.97;100003.16;4158402;28;20234;-29
2022/10/02 09:50:41;;;;;;;3.37;2.60;;;;;;;23.07;48.85;100010.84;4166889;28;21062;-31
2022/10/02 09:53:04;;;;;;;3.63;2.43;;;;;;;24.02;48.15;99934.66;4160385;28;20665;-31
2022/10/02 09:55:24;;;;;;;2.60;2.37;;;;;;;23.91;47.86;99930.94;4152698;28;20346;-30
2022/10/02 09:57:44;;;;;;;3.37;2.10;;;;;;;23.28;48.65;99978.75;4157164;28;20672;-30
2022/10/02 10:00:08;;;;;;;3.23;2.10;;;;;;;25.01;45.96;99863.41;4164699;28;20255;-30
2022/10/02 10:02:18;;;;;;;5.17;2.20;;;;;;;24.76;46.57;99877.44;4153885;28;20722;-30
2022/10/02 10:04:47;;;;;;;2.93;2.40;;;;;;;24.36;47.50;99916.53;4157311;28;20241;-30
2022/10/02 10:07:33;;;;;;;2.83;2.53;;;;;;;23.58;47.79;99971.28;4165989;28;20236;-30
2022/10/02 10:10:18;;;;;;;4.93;2.13;;;;;;;23.91;47.99;99956.19;4153754;28;20340;-30
2022/10/02 10:12:22;;;;;;;2.00;1.90;;;;;;;24.44;47.38;99890.84;4157234;28;21775;-31
2022/10/02 10:14:33;;;;;;;1.80;1.70;;;;;;;24.04;47.26;99943.38;4156327;28;20714;-30
2022/10/02 10:16:43;;;;;;;2.13;1.87;;;;;;;24.76;46.13;99876.63;4161216;28;20371;-30
2022/10/02 10:19:12;;;;;;;2.00;1.90;;;;;;;24.17;47.46;99926.00;4163260;28;20239;-30
2022/10/02 10:21:38;;;;;;;2.20;2.10;;;;;;;23.93;47.65;99959.50;4165226;28;20288;-30
2022/10/02 10:23:56;;;;;;;2.27;2.17;;;;;;;25.64;44.81;99838.56;4158578;28;20244;-31
2022/10/02 10:26:15;;;;;;;2.67;2.00;;;;;;;24.08;47.12;99971.72;4156245;28;20302;-30
2022/10/02 10:28:47;;;;;;;2.67;2.17;;;;;;;23.94;48.01;99965.78;4150262;28;20742;-30
2022/10/02 10:31:26;;;;;;;4.00;1.67;;;;;;;24.88;46.03;99880.09;4161903;28;20232;-30
2022/10/02 10:34:12;;;;;;;2.60;2.20;;;;;;;24.96;46.29;99876.94;4152553;28;20228;-31
2022/10/02 10:39:25;;;;;;;2.20;2.00;;;;;;;23.89;47.95;99993.66;4155531;28;20304;-31